メインページ
METAR-TAF:

METAR-TAF

空港 :

ジブチ国際空港

ジブチ, ジブチ

緯度: 11-33N, 経度: 043-10E, 海抜: 49m

現時点の気象観測

当レポートは16分前の08:00(UTC)に作成
の風 13kt
気温 30°C
湿度 75%
気圧 1015 hPa
視程10km以上
高度2300ftの雲は散在している

METAR: HDAM 190800Z 08013KT 9999 SCT023 30/25 Q1015

時間: 11:16 (08:16 UTC)

予報

当レポートは2時間46分前の05:30(UTC)に作成
予報は19日の 06時(UTC)から 20日の 06時(UTC)まで有効
の風 10kt
視程10km以上
高度3000ftの千切れ雲あり
高度2000ftの雲は散在している
19日の 15時(UTC)から 19日の 18時(UTC)まで徐々に
変向風 3kt
高度2000ftの雲は散在している
高度3000ftの雲は散在している
20日の 00時(UTC)から 20日の 06時(UTC)まで徐々に
の風 10kt
高度2000ftの雲は散在している
高度3000ftの雲は散在している

TAF: HDAM 190530Z 1906/2006 10010KT 9999 BKN030 SCT020 BECMG 1915/1918 VRB03KT SCT020 SCT030 BECMG 2000/2006 08010KT SCT020 SCT030

4,000以上の空港の気象観測と天気予報(METAR報とTAF報)

利用可能な観測所は地図上に黄色い丸と赤い丸で示す。

丸の上にカーソルを重ねると観測所名を参照できる。

次にクリックすると気象観測と天気予報を参照できる。

マップの切り替え:黒色「×」印の緑ボタンをクリックして拡大、「-」印の緑ボタンをクリックして縮小、緑色の三角印をクリックして隣りの地図に切り替え


METAR-TAF: